sensor_id;sensor_type;location;lat;lon;timestamp;pressure;altitude;pressure_sealevel;temperature;humidity
36898;BME280;22827;53.108;-6.738;2022-09-09T00:01:44;99447.90;;;13.65;51.82
36898;BME280;22827;53.108;-6.738;2022-09-09T00:04:19;99448.04;;;13.06;53.97
36898;BME280;22827;53.108;-6.738;2022-09-09T00:06:58;99444.38;;;12.66;54.55
36898;BME280;22827;53.108;-6.738;2022-09-09T00:09:28;99445.42;;;13.33;53.69
36898;BME280;22827;53.108;-6.738;2022-09-09T00:12:01;99442.89;;;12.96;53.45
36898;BME280;22827;53.108;-6.738;2022-09-09T00:14:37;99442.22;;;13.53;53.05
36898;BME280;22827;53.108;-6.738;2022-09-09T00:17:09;99439.43;;;13.65;51.78
36898;BME280;22827;53.108;-6.738;2022-09-09T00:19:41;99438.86;;;12.95;53.11
36898;BME280;22827;53.108;-6.738;2022-09-09T00:22:16;99437.91;;;13.90;52.09
36898;BME280;22827;53.108;-6.738;2022-09-09T00:24:45;99435.02;;;13.35;52.18
36898;BME280;22827;53.108;-6.738;2022-09-09T00:27:19;99436.48;;;13.26;53.10
36898;BME280;22827;53.108;-6.738;2022-09-09T00:29:53;99431.26;;;13.86;52.40
36898;BME280;22827;53.108;-6.738;2022-09-09T00:32:22;99431.83;;;13.91;51.58
36898;BME280;22827;53.108;-6.738;2022-09-09T00:34:54;99434.18;;;13.42;52.71
36898;BME280;22827;53.108;-6.738;2022-09-09T00:37:22;99435.54;;;12.41;56.71
36898;BME280;22827;53.108;-6.738;2022-09-09T00:39:52;99433.23;;;13.49;55.15
36898;BME280;22827;53.108;-6.738;2022-09-09T00:42:24;99435.31;;;12.22;57.26
36898;BME280;22827;53.108;-6.738;2022-09-09T00:44:58;99436.73;;;12.43;56.78
36898;BME280;22827;53.108;-6.738;2022-09-09T00:47:37;99436.92;;;12.13;58.02
36898;BME280;22827;53.108;-6.738;2022-09-09T00:50:17;99439.33;;;12.65;57.24
36898;BME280;22827;53.108;-6.738;2022-09-09T00:52:55;99445.73;;;11.25;61.57
36898;BME280;22827;53.108;-6.738;2022-09-09T00:55:33;99439.44;;;12.50;59.68
36898;BME280;22827;53.108;-6.738;2022-09-09T00:58:07;99441.54;;;12.06;60.51
36898;BME280;22827;53.108;-6.738;2022-09-09T01:00:42;99448.19;;;11.46;61.58
36898;BME280;22827;53.108;-6.738;2022-09-09T01:03:20;99449.67;;;12.31;61.20
36898;BME280;22827;53.108;-6.738;2022-09-09T01:05:56;99445.84;;;12.47;61.01
36898;BME280;22827;53.108;-6.738;2022-09-09T01:08:42;99450.52;;;11.72;63.21
36898;BME280;22827;53.108;-6.738;2022-09-09T01:11:14;99453.24;;;12.24;62.54
36898;BME280;22827;53.108;-6.738;2022-09-09T01:13:45;99452.47;;;12.43;62.00
36898;BME280;22827;53.108;-6.738;2022-09-09T01:16:14;99454.84;;;11.15;65.78
36898;BME280;22827;53.108;-6.738;2022-09-09T01:18:45;99455.35;;;11.41;65.91
36898;BME280;22827;53.108;-6.738;2022-09-09T01:21:20;99455.76;;;11.91;64.29
36898;BME280;22827;53.108;-6.738;2022-09-09T01:24:10;99457.61;;;11.67;63.98
36898;BME280;22827;53.108;-6.738;2022-09-09T01:26:43;99457.27;;;12.14;62.41
36898;BME280;22827;53.108;-6.738;2022-09-09T01:29:13;99457.53;;;12.96;59.47
36898;BME280;22827;53.108;-6.738;2022-09-09T01:31:51;99459.36;;;12.25;61.83
36898;BME280;22827;53.108;-6.738;2022-09-09T01:34:19;99457.37;;;12.20;61.30
36898;BME280;22827;53.108;-6.738;2022-09-09T01:36:49;99460.41;;;12.51;61.61
36898;BME280;22827;53.108;-6.738;2022-09-09T01:39:20;99458.71;;;12.43;61.67
36898;BME280;22827;53.108;-6.738;2022-09-09T01:41:48;99460.01;;;12.51;62.54
36898;BME280;22827;53.108;-6.738;2022-09-09T01:44:15;99456.92;;;12.13;62.36
36898;BME280;22827;53.108;-6.738;2022-09-09T01:46:42;99461.57;;;11.96;62.30
36898;BME280;22827;53.108;-6.738;2022-09-09T01:49:09;99459.22;;;12.47;61.14
36898;BME280;22827;53.108;-6.738;2022-09-09T01:51:38;99458.03;;;12.74;60.91
36898;BME280;22827;53.108;-6.738;2022-09-09T01:54:07;99464.10;;;12.29;61.69
36898;BME280;22827;53.108;-6.738;2022-09-09T01:56:40;99461.31;;;11.49;63.97
36898;BME280;22827;53.108;-6.738;2022-09-09T01:59:21;99461.14;;;11.95;62.01
36898;BME280;22827;53.108;-6.738;2022-09-09T02:02:01;99459.19;;;12.47;62.89
36898;BME280;22827;53.108;-6.738;2022-09-09T02:04:38;99459.42;;;12.25;62.53
36898;BME280;22827;53.108;-6.738;2022-09-09T02:07:12;99457.30;;;11.94;63.94
36898;BME280;22827;53.108;-6.738;2022-09-09T02:09:43;99455.02;;;12.23;61.94
36898;BME280;22827;53.108;-6.738;2022-09-09T02:12:14;99450.83;;;12.91;60.25
36898;BME280;22827;53.108;-6.738;2022-09-09T02:14:48;99456.28;;;12.20;61.66
36898;BME280;22827;53.108;-6.738;2022-09-09T02:17:22;99452.79;;;12.30;61.69
36898;BME280;22827;53.108;-6.738;2022-09-09T02:19:54;99454.79;;;12.62;61.33
36898;BME280;22827;53.108;-6.738;2022-09-09T02:22:26;99457.25;;;11.18;63.78
36898;BME280;22827;53.108;-6.738;2022-09-09T02:24:57;99460.72;;;12.42;61.63
36898;BME280;22827;53.108;-6.738;2022-09-09T02:27:26;99457.52;;;11.52;62.98
36898;BME280;22827;53.108;-6.738;2022-09-09T02:29:55;99452.36;;;12.79;61.16
36898;BME280;22827;53.108;-6.738;2022-09-09T02:32:24;99452.35;;;12.63;60.21
36898;BME280;22827;53.108;-6.738;2022-09-09T02:34:56;99452.35;;;12.49;62.24
36898;BME280;22827;53.108;-6.738;2022-09-09T02:37:28;99456.94;;;12.20;63.24
36898;BME280;22827;53.108;-6.738;2022-09-09T02:39:57;99454.44;;;12.72;62.13
36898;BME280;22827;53.108;-6.738;2022-09-09T02:42:25;99458.00;;;11.34;63.63
36898;BME280;22827;53.108;-6.738;2022-09-09T02:44:52;99453.29;;;12.38;61.79
36898;BME280;22827;53.108;-6.738;2022-09-09T02:47:26;99453.97;;;12.32;61.86
36898;BME280;22827;53.108;-6.738;2022-09-09T02:50:06;99458.27;;;11.91;62.39
36898;BME280;22827;53.108;-6.738;2022-09-09T02:52:42;99450.55;;;12.58;60.91
36898;BME280;22827;53.108;-6.738;2022-09-09T02:55:18;99458.17;;;11.99;61.97
36898;BME280;22827;53.108;-6.738;2022-09-09T02:57:47;99456.23;;;11.96;62.33
36898;BME280;22827;53.108;-6.738;2022-09-09T03:00:16;99455.83;;;11.74;62.87
36898;BME280;22827;53.108;-6.738;2022-09-09T03:02:42;99454.45;;;11.79;62.69
36898;BME280;22827;53.108;-6.738;2022-09-09T03:05:10;99455.54;;;11.17;65.11
36898;BME280;22827;53.108;-6.738;2022-09-09T03:07:37;99453.75;;;12.45;62.07
36898;BME280;22827;53.108;-6.738;2022-09-09T03:10:05;99454.24;;;12.16;63.06
36898;BME280;22827;53.108;-6.738;2022-09-09T03:12:33;99456.89;;;12.11;62.13
36898;BME280;22827;53.108;-6.738;2022-09-09T03:14:59;99455.35;;;11.43;64.26
36898;BME280;22827;53.108;-6.738;2022-09-09T03:17:26;99451.65;;;11.50;64.30
36898;BME280;22827;53.108;-6.738;2022-09-09T03:19:53;99448.40;;;11.61;62.81
36898;BME280;22827;53.108;-6.738;2022-09-09T03:22:21;99447.12;;;11.85;62.53
36898;BME280;22827;53.108;-6.738;2022-09-09T03:24:48;99446.75;;;10.88;65.42
36898;BME280;22827;53.108;-6.738;2022-09-09T03:27:15;99440.78;;;10.12;67.54
36898;BME280;22827;53.108;-6.738;2022-09-09T03:29:42;99438.95;;;11.01;66.40
36898;BME280;22827;53.108;-6.738;2022-09-09T03:32:09;99439.43;;;10.51;66.76
36898;BME280;22827;53.108;-6.738;2022-09-09T03:34:36;99437.38;;;11.69;64.97
36898;BME280;22827;53.108;-6.738;2022-09-09T03:37:04;99439.36;;;10.52;66.29
36898;BME280;22827;53.108;-6.738;2022-09-09T03:39:30;99442.70;;;10.21;67.98
36898;BME280;22827;53.108;-6.738;2022-09-09T03:41:57;99442.17;;;10.74;65.99
36898;BME280;22827;53.108;-6.738;2022-09-09T03:44:24;99437.50;;;11.72;65.37
36898;BME280;22827;53.108;-6.738;2022-09-09T03:46:52;99439.53;;;11.17;64.97
36898;BME280;22827;53.108;-6.738;2022-09-09T03:49:19;99445.29;;;11.68;64.40
36898;BME280;22827;53.108;-6.738;2022-09-09T03:51:46;99446.02;;;11.02;66.34
36898;BME280;22827;53.108;-6.738;2022-09-09T03:54:12;99447.30;;;11.76;64.96
36898;BME280;22827;53.108;-6.738;2022-09-09T03:56:40;99448.39;;;11.60;64.63
36898;BME280;22827;53.108;-6.738;2022-09-09T03:59:07;99447.03;;;10.71;66.60
36898;BME280;22827;53.108;-6.738;2022-09-09T04:01:34;99442.93;;;10.45;67.89
36898;BME280;22827;53.108;-6.738;2022-09-09T04:04:02;99444.25;;;10.86;66.42
36898;BME280;22827;53.108;-6.738;2022-09-09T04:06:29;99451.86;;;10.88;64.88
36898;BME280;22827;53.108;-6.738;2022-09-09T04:08:56;99451.15;;;10.37;67.69
36898;BME280;22827;53.108;-6.738;2022-09-09T04:11:23;99447.84;;;10.73;67.44
36898;BME280;22827;53.108;-6.738;2022-09-09T04:13:49;99450.69;;;10.91;66.83
36898;BME280;22827;53.108;-6.738;2022-09-09T04:16:16;99453.16;;;10.61;68.05
36898;BME280;22827;53.108;-6.738;2022-09-09T04:18:43;99457.26;;;10.74;66.55
36898;BME280;22827;53.108;-6.738;2022-09-09T04:21:11;99457.93;;;11.19;66.39
36898;BME280;22827;53.108;-6.738;2022-09-09T04:23:39;99461.10;;;10.55;66.94
36898;BME280;22827;53.108;-6.738;2022-09-09T04:26:06;99461.51;;;10.08;68.53
36898;BME280;22827;53.108;-6.738;2022-09-09T04:28:35;99458.04;;;11.47;65.47
36898;BME280;22827;53.108;-6.738;2022-09-09T04:31:05;99456.49;;;11.09;65.89
36898;BME280;22827;53.108;-6.738;2022-09-09T04:33:32;99455.76;;;9.87;68.86
36898;BME280;22827;53.108;-6.738;2022-09-09T04:35:59;99451.11;;;10.44;67.54
36898;BME280;22827;53.108;-6.738;2022-09-09T04:38:26;99458.60;;;9.67;70.69
36898;BME280;22827;53.108;-6.738;2022-09-09T04:40:53;99449.59;;;11.18;67.46
36898;BME280;22827;53.108;-6.738;2022-09-09T04:43:20;99451.81;;;11.25;67.80
36898;BME280;22827;53.108;-6.738;2022-09-09T04:45:49;99450.41;;;10.79;67.53
36898;BME280;22827;53.108;-6.738;2022-09-09T04:48:16;99448.08;;;11.27;66.16
36898;BME280;22827;53.108;-6.738;2022-09-09T04:50:44;99449.44;;;10.59;66.94
36898;BME280;22827;53.108;-6.738;2022-09-09T04:53:10;99449.31;;;10.90;67.16
36898;BME280;22827;53.108;-6.738;2022-09-09T04:55:37;99446.73;;;10.86;66.38
36898;BME280;22827;53.108;-6.738;2022-09-09T04:58:05;99448.38;;;10.37;68.44
36898;BME280;22827;53.108;-6.738;2022-09-09T05:00:32;99443.18;;;11.28;66.16
36898;BME280;22827;53.108;-6.738;2022-09-09T05:03:02;99446.51;;;10.38;68.72
36898;BME280;22827;53.108;-6.738;2022-09-09T05:05:29;99445.49;;;11.32;68.39
36898;BME280;22827;53.108;-6.738;2022-09-09T05:08:01;99450.72;;;10.10;70.50
36898;BME280;22827;53.108;-6.738;2022-09-09T05:10:28;99442.94;;;10.52;69.74
36898;BME280;22827;53.108;-6.738;2022-09-09T05:12:55;99444.35;;;11.12;68.72
36898;BME280;22827;53.108;-6.738;2022-09-09T05:15:22;99443.73;;;9.47;70.32
36898;BME280;22827;53.108;-6.738;2022-09-09T05:17:49;99440.60;;;10.23;68.82
36898;BME280;22827;53.108;-6.738;2022-09-09T05:20:16;99445.59;;;11.73;65.73
36898;BME280;22827;53.108;-6.738;2022-09-09T05:22:44;99446.67;;;11.36;66.31
36898;BME280;22827;53.108;-6.738;2022-09-09T05:25:11;99444.93;;;10.17;68.56
36898;BME280;22827;53.108;-6.738;2022-09-09T05:27:37;99447.34;;;11.07;67.67
36898;BME280;22827;53.108;-6.738;2022-09-09T05:30:05;99448.28;;;10.87;68.13
36898;BME280;22827;53.108;-6.738;2022-09-09T05:32:32;99449.34;;;10.21;68.87
36898;BME280;22827;53.108;-6.738;2022-09-09T05:34:59;99449.22;;;10.65;68.41
36898;BME280;22827;53.108;-6.738;2022-09-09T05:37:26;99445.86;;;10.72;67.79
36898;BME280;22827;53.108;-6.738;2022-09-09T05:39:53;99450.09;;;11.13;67.50
36898;BME280;22827;53.108;-6.738;2022-09-09T05:42:19;99443.86;;;10.57;67.77
36898;BME280;22827;53.108;-6.738;2022-09-09T05:44:47;99449.37;;;10.73;67.68
36898;BME280;22827;53.108;-6.738;2022-09-09T05:47:14;99450.62;;;11.26;66.50
36898;BME280;22827;53.108;-6.738;2022-09-09T05:49:41;99455.06;;;10.87;68.02
36898;BME280;22827;53.108;-6.738;2022-09-09T05:52:08;99452.83;;;10.91;66.68
36898;BME280;22827;53.108;-6.738;2022-09-09T05:54:35;99454.92;;;11.18;66.91
36898;BME280;22827;53.108;-6.738;2022-09-09T05:57:02;99462.19;;;10.51;68.28
36898;BME280;22827;53.108;-6.738;2022-09-09T05:59:29;99465.95;;;10.01;69.18
36898;BME280;22827;53.108;-6.738;2022-09-09T06:01:57;99461.42;;;10.66;69.21
36898;BME280;22827;53.108;-6.738;2022-09-09T06:04:23;99467.23;;;10.19;69.88
36898;BME280;22827;53.108;-6.738;2022-09-09T06:06:50;99471.92;;;9.93;70.55
36898;BME280;22827;53.108;-6.738;2022-09-09T06:09:17;99469.66;;;10.82;69.76
36898;BME280;22827;53.108;-6.738;2022-09-09T06:11:44;99464.84;;;11.25;67.20
36898;BME280;22827;53.108;-6.738;2022-09-09T06:14:11;99467.64;;;11.30;67.99
36898;BME280;22827;53.108;-6.738;2022-09-09T06:16:38;99476.04;;;9.95;70.61
36898;BME280;22827;53.108;-6.738;2022-09-09T06:19:04;99473.73;;;10.49;69.70
36898;BME280;22827;53.108;-6.738;2022-09-09T06:21:33;99475.89;;;10.95;68.31
36898;BME280;22827;53.108;-6.738;2022-09-09T06:24:01;99482.21;;;10.70;68.38
36898;BME280;22827;53.108;-6.738;2022-09-09T06:26:30;99481.61;;;10.69;69.44
36898;BME280;22827;53.108;-6.738;2022-09-09T06:28:59;99485.89;;;11.43;65.86
36898;BME280;22827;53.108;-6.738;2022-09-09T06:31:28;99482.63;;;11.17;67.90
36898;BME280;22827;53.108;-6.738;2022-09-09T06:33:56;99486.18;;;11.15;69.53
36898;BME280;22827;53.108;-6.738;2022-09-09T06:36:25;99499.41;;;10.30;70.92
36898;BME280;22827;53.108;-6.738;2022-09-09T06:38:52;99492.84;;;10.46;69.76
36898;BME280;22827;53.108;-6.738;2022-09-09T06:41:22;99491.07;;;11.13;69.24
36898;BME280;22827;53.108;-6.738;2022-09-09T06:43:49;99488.78;;;11.70;67.56
36898;BME280;22827;53.108;-6.738;2022-09-09T06:46:18;99490.92;;;11.19;67.39
36898;BME280;22827;53.108;-6.738;2022-09-09T06:48:46;99492.08;;;10.64;69.16
36898;BME280;22827;53.108;-6.738;2022-09-09T06:51:15;99495.62;;;10.48;69.17
36898;BME280;22827;53.108;-6.738;2022-09-09T06:53:43;99488.70;;;10.98;69.08
36898;BME280;22827;53.108;-6.738;2022-09-09T06:56:19;99492.66;;;10.40;68.90
36898;BME280;22827;53.108;-6.738;2022-09-09T06:58:46;99491.43;;;11.18;67.64
36898;BME280;22827;53.108;-6.738;2022-09-09T07:01:15;99491.87;;;11.57;66.39
36898;BME280;22827;53.108;-6.738;2022-09-09T07:03:46;99489.20;;;11.64;65.36
36898;BME280;22827;53.108;-6.738;2022-09-09T07:06:15;99492.38;;;11.39;65.55
36898;BME280;22827;53.108;-6.738;2022-09-09T07:08:43;99495.78;;;11.21;66.42
36898;BME280;22827;53.108;-6.738;2022-09-09T07:11:11;99496.04;;;11.21;65.32
36898;BME280;22827;53.108;-6.738;2022-09-09T07:13:38;99499.93;;;11.65;64.94
36898;BME280;22827;53.108;-6.738;2022-09-09T07:16:06;99504.96;;;11.82;65.90
36898;BME280;22827;53.108;-6.738;2022-09-09T07:18:33;99508.25;;;11.82;66.03
36898;BME280;22827;53.108;-6.738;2022-09-09T07:21:02;99507.70;;;10.78;68.40
36898;BME280;22827;53.108;-6.738;2022-09-09T07:23:30;99510.58;;;10.96;69.95
36898;BME280;22827;53.108;-6.738;2022-09-09T07:25:57;99510.36;;;10.68;70.75
36898;BME280;22827;53.108;-6.738;2022-09-09T07:28:25;99515.71;;;10.67;73.26
36898;BME280;22827;53.108;-6.738;2022-09-09T07:30:54;99521.32;;;10.55;74.07
36898;BME280;22827;53.108;-6.738;2022-09-09T07:33:21;99526.01;;;10.43;73.74
36898;BME280;22827;53.108;-6.738;2022-09-09T07:35:48;99528.80;;;10.27;72.56
36898;BME280;22827;53.108;-6.738;2022-09-09T07:38:15;99532.27;;;10.87;71.18
36898;BME280;22827;53.108;-6.738;2022-09-09T07:40:43;99531.68;;;11.12;70.88
36898;BME280;22827;53.108;-6.738;2022-09-09T07:43:10;99538.77;;;10.82;71.78
36898;BME280;22827;53.108;-6.738;2022-09-09T07:45:37;99539.56;;;11.14;69.57
36898;BME280;22827;53.108;-6.738;2022-09-09T07:48:05;99540.79;;;11.06;69.95
36898;BME280;22827;53.108;-6.738;2022-09-09T07:50:32;99549.81;;;10.94;70.96
36898;BME280;22827;53.108;-6.738;2022-09-09T07:52:59;99552.69;;;11.59;70.05
36898;BME280;22827;53.108;-6.738;2022-09-09T07:55:26;99555.01;;;11.76;69.86
36898;BME280;22827;53.108;-6.738;2022-09-09T07:57:53;99557.94;;;11.59;68.94
36898;BME280;22827;53.108;-6.738;2022-09-09T08:00:21;99560.84;;;11.62;68.34
36898;BME280;22827;53.108;-6.738;2022-09-09T08:02:48;99563.18;;;11.65;68.59
36898;BME280;22827;53.108;-6.738;2022-09-09T08:05:15;99570.36;;;11.55;68.70
36898;BME280;22827;53.108;-6.738;2022-09-09T08:07:43;99574.17;;;11.93;67.55
36898;BME280;22827;53.108;-6.738;2022-09-09T08:10:09;99577.75;;;11.97;68.20
36898;BME280;22827;53.108;-6.738;2022-09-09T08:12:36;99580.98;;;11.23;69.68
36898;BME280;22827;53.108;-6.738;2022-09-09T08:15:04;99585.02;;;11.38;69.62
36898;BME280;22827;53.108;-6.738;2022-09-09T08:17:32;99585.00;;;11.53;69.26
36898;BME280;22827;53.108;-6.738;2022-09-09T08:19:58;99583.97;;;11.67;68.45
36898;BME280;22827;53.108;-6.738;2022-09-09T08:22:26;99587.63;;;12.24;69.09
36898;BME280;22827;53.108;-6.738;2022-09-09T08:24:53;99593.92;;;11.70;70.34
36898;BME280;22827;53.108;-6.738;2022-09-09T08:27:19;99595.41;;;11.77;69.33
36898;BME280;22827;53.108;-6.738;2022-09-09T08:29:46;99603.17;;;11.80;70.56
36898;BME280;22827;53.108;-6.738;2022-09-09T08:32:13;99613.20;;;11.68;71.15
36898;BME280;22827;53.108;-6.738;2022-09-09T08:34:40;99607.78;;;11.70;70.38
36898;BME280;22827;53.108;-6.738;2022-09-09T08:37:08;99610.12;;;12.35;68.33
36898;BME280;22827;53.108;-6.738;2022-09-09T08:39:35;99612.12;;;12.38;68.64
36898;BME280;22827;53.108;-6.738;2022-09-09T08:42:34;99618.01;;;12.65;67.96
36898;BME280;22827;53.108;-6.738;2022-09-09T08:45:16;99622.69;;;12.09;69.31
36898;BME280;22827;53.108;-6.738;2022-09-09T08:47:54;99627.43;;;11.60;70.45
36898;BME280;22827;53.108;-6.738;2022-09-09T08:50:26;99630.60;;;12.09;71.33
36898;BME280;22827;53.108;-6.738;2022-09-09T08:53:00;99636.85;;;10.96;72.62
36898;BME280;22827;53.108;-6.738;2022-09-09T08:55:37;99635.96;;;12.30;71.22
36898;BME280;22827;53.108;-6.738;2022-09-09T08:58:11;99639.07;;;11.53;72.02
36898;BME280;22827;53.108;-6.738;2022-09-09T09:00:49;99643.37;;;12.01;70.39
36898;BME280;22827;53.108;-6.738;2022-09-09T09:03:24;99645.60;;;12.15;70.22
36898;BME280;22827;53.108;-6.738;2022-09-09T09:06:04;99650.78;;;12.46;69.59
36898;BME280;22827;53.108;-6.738;2022-09-09T09:08:38;99658.71;;;11.99;69.86
36898;BME280;22827;53.108;-6.738;2022-09-09T09:11:07;99660.62;;;12.30;69.06
36898;BME280;22827;53.108;-6.738;2022-09-09T09:13:39;99664.03;;;12.45;68.49
36898;BME280;22827;53.108;-6.738;2022-09-09T09:16:14;99671.68;;;12.35;68.65
36898;BME280;22827;53.108;-6.738;2022-09-09T09:18:45;99683.84;;;12.09;69.71
36898;BME280;22827;53.108;-6.738;2022-09-09T09:21:15;99682.17;;;12.74;68.44
36898;BME280;22827;53.108;-6.738;2022-09-09T09:23:47;99683.94;;;12.74;66.31
36898;BME280;22827;53.108;-6.738;2022-09-09T09:26:15;99683.83;;;13.36;64.98
36898;BME280;22827;53.108;-6.738;2022-09-09T09:28:42;99686.90;;;13.51;65.13
36898;BME280;22827;53.108;-6.738;2022-09-09T09:31:10;99682.86;;;13.24;66.01
36898;BME280;22827;53.108;-6.738;2022-09-09T09:33:44;99690.57;;;13.56;64.83
36898;BME280;22827;53.108;-6.738;2022-09-09T09:36:13;99692.76;;;13.68;64.11
36898;BME280;22827;53.108;-6.738;2022-09-09T09:38:52;99697.36;;;13.05;66.44
36898;BME280;22827;53.108;-6.738;2022-09-09T09:41:30;99705.24;;;12.53;67.49
36898;BME280;22827;53.108;-6.738;2022-09-09T09:43:57;99708.02;;;12.33;67.03
36898;BME280;22827;53.108;-6.738;2022-09-09T09:46:25;99711.63;;;12.59;67.88
36898;BME280;22827;53.108;-6.738;2022-09-09T09:49:01;99709.51;;;12.48;66.58
36898;BME280;22827;53.108;-6.738;2022-09-09T09:51:30;99714.35;;;12.59;66.80
36898;BME280;22827;53.108;-6.738;2022-09-09T09:54:18;99715.01;;;13.05;65.57
36898;BME280;22827;53.108;-6.738;2022-09-09T09:56:49;99720.84;;;13.84;64.67
36898;BME280;22827;53.108;-6.738;2022-09-09T09:59:22;99723.00;;;13.61;63.53
36898;BME280;22827;53.108;-6.738;2022-09-09T10:01:50;99722.53;;;13.75;63.22
36898;BME280;22827;53.108;-6.738;2022-09-09T10:04:19;99724.83;;;13.61;63.37
36898;BME280;22827;53.108;-6.738;2022-09-09T10:06:46;99726.36;;;13.79;63.92
36898;BME280;22827;53.108;-6.738;2022-09-09T10:09:24;99733.50;;;13.34;66.06
36898;BME280;22827;53.108;-6.738;2022-09-09T10:11:57;99735.04;;;13.59;64.94
36898;BME280;22827;53.108;-6.738;2022-09-09T10:14:35;99734.30;;;13.83;64.61
36898;BME280;22827;53.108;-6.738;2022-09-09T10:17:15;99738.39;;;14.30;62.47
36898;BME280;22827;53.108;-6.738;2022-09-09T10:19:52;99740.68;;;14.04;61.49
36898;BME280;22827;53.108;-6.738;2022-09-09T10:22:27;99742.60;;;14.45;60.42
36898;BME280;22827;53.108;-6.738;2022-09-09T10:25:09;99743.68;;;13.61;62.01
36898;BME280;22827;53.108;-6.738;2022-09-09T10:27:43;99745.37;;;13.74;63.01
36898;BME280;22827;53.108;-6.738;2022-09-09T10:30:17;99746.73;;;12.72;64.50
36898;BME280;22827;53.108;-6.738;2022-09-09T10:32:48;99749.24;;;13.02;65.77
36898;BME280;22827;53.108;-6.738;2022-09-09T10:35:25;99756.97;;;12.29;67.40
36898;BME280;22827;53.108;-6.738;2022-09-09T10:38:05;99760.20;;;12.73;67.34
36898;BME280;22827;53.108;-6.738;2022-09-09T10:40:38;99760.33;;;12.71;66.62
36898;BME280;22827;53.108;-6.738;2022-09-09T10:43:16;99766.64;;;12.89;66.05
36898;BME280;22827;53.108;-6.738;2022-09-09T10:45:56;99767.28;;;13.34;65.15
36898;BME280;22827;53.108;-6.738;2022-09-09T10:48:33;99776.58;;;13.13;65.68
36898;BME280;22827;53.108;-6.738;2022-09-09T10:51:16;99773.39;;;12.95;64.63
36898;BME280;22827;53.108;-6.738;2022-09-09T10:53:56;99783.88;;;13.58;65.08
36898;BME280;22827;53.108;-6.738;2022-09-09T10:56:25;99788.29;;;13.62;64.50
36898;BME280;22827;53.108;-6.738;2022-09-09T10:58:56;99794.18;;;13.85;63.06
36898;BME280;22827;53.108;-6.738;2022-09-09T11:01:28;99796.08;;;13.78;62.16
36898;BME280;22827;53.108;-6.738;2022-09-09T11:04:01;99792.31;;;14.02;61.44
36898;BME280;22827;53.108;-6.738;2022-09-09T11:06:32;99792.40;;;14.11;61.09
36898;BME280;22827;53.108;-6.738;2022-09-09T11:09:02;99791.69;;;14.40;60.69
36898;BME280;22827;53.108;-6.738;2022-09-09T11:11:34;99794.27;;;14.24;60.09
36898;BME280;22827;53.108;-6.738;2022-09-09T11:14:10;99799.62;;;13.95;60.89
36898;BME280;22827;53.108;-6.738;2022-09-09T11:16:44;99803.31;;;14.10;61.55
36898;BME280;22827;53.108;-6.738;2022-09-09T11:19:19;99803.27;;;13.27;61.71
36898;BME280;22827;53.108;-6.738;2022-09-09T11:21:51;99805.93;;;13.84;61.49
36898;BME280;22827;53.108;-6.738;2022-09-09T11:24:22;99808.39;;;13.83;59.15
36898;BME280;22827;53.108;-6.738;2022-09-09T11:26:54;99808.72;;;14.68;58.07
36898;BME280;22827;53.108;-6.738;2022-09-09T11:29:50;99809.39;;;14.60;57.02
36898;BME280;22827;53.108;-6.738;2022-09-09T11:32:44;99810.95;;;15.03;57.14
36898;BME280;22827;53.108;-6.738;2022-09-09T11:35:26;99824.49;;;14.51;58.11
36898;BME280;22827;53.108;-6.738;2022-09-09T11:38:13;99834.50;;;14.95;57.37
36898;BME280;22827;53.108;-6.738;2022-09-09T11:40:42;99836.71;;;14.14;56.22
36898;BME280;22827;53.108;-6.738;2022-09-09T11:43:12;99837.68;;;15.20;54.31
36898;BME280;22827;53.108;-6.738;2022-09-09T11:45:41;99833.25;;;14.98;52.91
36898;BME280;22827;53.108;-6.738;2022-09-09T11:48:23;99837.28;;;14.66;53.74
36898;BME280;22827;53.108;-6.738;2022-09-09T11:51:03;99832.64;;;14.95;53.74
36898;BME280;22827;53.108;-6.738;2022-09-09T11:53:31;99831.01;;;15.00;53.40
36898;BME280;22827;53.108;-6.738;2022-09-09T11:56:09;99829.87;;;15.01;54.21
36898;BME280;22827;53.108;-6.738;2022-09-09T11:58:41;99823.80;;;15.18;54.06
36898;BME280;22827;53.108;-6.738;2022-09-09T12:01:27;99826.50;;;15.34;53.21
36898;BME280;22827;53.108;-6.738;2022-09-09T12:04:05;99830.61;;;15.08;53.11
36898;BME280;22827;53.108;-6.738;2022-09-09T12:06:43;99829.22;;;14.92;54.31
36898;BME280;22827;53.108;-6.738;2022-09-09T12:09:18;99824.64;;;15.26;52.93
36898;BME280;22827;53.108;-6.738;2022-09-09T12:11:47;99826.83;;;15.17;51.92
36898;BME280;22827;53.108;-6.738;2022-09-09T12:14:21;99831.07;;;15.10;52.14
36898;BME280;22827;53.108;-6.738;2022-09-09T12:16:49;99842.85;;;15.03;53.17
36898;BME280;22827;53.108;-6.738;2022-09-09T12:19:20;99848.60;;;15.40;52.63
36898;BME280;22827;53.108;-6.738;2022-09-09T12:21:54;99851.73;;;15.75;53.01
36898;BME280;22827;53.108;-6.738;2022-09-09T12:24:30;99855.14;;;15.32;52.95
36898;BME280;22827;53.108;-6.738;2022-09-09T12:27:06;99856.25;;;15.72;51.45
36898;BME280;22827;53.108;-6.738;2022-09-09T12:29:42;99861.67;;;15.95;50.88
36898;BME280;22827;53.108;-6.738;2022-09-09T12:32:16;99863.17;;;16.11;50.98
36898;BME280;22827;53.108;-6.738;2022-09-09T12:34:48;99863.86;;;15.08;52.60
36898;BME280;22827;53.108;-6.738;2022-09-09T12:37:26;99864.18;;;14.96;53.62
36898;BME280;22827;53.108;-6.738;2022-09-09T12:39:56;99863.64;;;15.46;52.90
36898;BME280;22827;53.108;-6.738;2022-09-09T12:42:25;99864.72;;;16.01;50.82
36898;BME280;22827;53.108;-6.738;2022-09-09T12:44:54;99868.78;;;16.80;48.96
36898;BME280;22827;53.108;-6.738;2022-09-09T12:47:25;99865.42;;;17.44;48.98
36898;BME280;22827;53.108;-6.738;2022-09-09T12:49:53;99865.69;;;16.61;49.68
36898;BME280;22827;53.108;-6.738;2022-09-09T12:52:25;99868.61;;;16.56;49.49
36898;BME280;22827;53.108;-6.738;2022-09-09T12:54:53;99863.97;;;17.10;49.23
36898;BME280;22827;53.108;-6.738;2022-09-09T12:57:24;99867.98;;;17.58;47.16
36898;BME280;22827;53.108;-6.738;2022-09-09T12:59:52;99870.90;;;18.11;47.80
36898;BME280;22827;53.108;-6.738;2022-09-09T13:02:21;99880.50;;;17.21;48.97
36898;BME280;22827;53.108;-6.738;2022-09-09T13:04:49;99881.26;;;17.05;49.83
36898;BME280;22827;53.108;-6.738;2022-09-09T13:07:18;99888.62;;;16.76;48.66
36898;BME280;22827;53.108;-6.738;2022-09-09T13:09:46;99886.53;;;16.42;49.33